createdAt,value
2019-02-16T00:02:08.190Z,979.1
2019-02-16T00:12:11.638Z,979.1
2019-02-16T00:22:15.065Z,979.1
2019-02-16T00:32:18.524Z,979.2
2019-02-16T00:42:21.975Z,979.2
2019-02-16T00:52:25.403Z,979.5
2019-02-16T01:02:28.844Z,979.4
2019-02-16T01:12:32.266Z,979.5
2019-02-16T01:22:35.726Z,971.9
2019-02-16T01:32:39.179Z,972
2019-02-16T01:42:42.641Z,972
2019-02-16T01:52:46.036Z,972
2019-02-16T02:02:49.435Z,972
2019-02-16T02:12:52.882Z,971.9
2019-02-16T02:22:56.277Z,972
2019-02-16T02:32:59.751Z,972.2
2019-02-16T02:43:03.179Z,972.5
2019-02-16T02:53:07.628Z,972.3
2019-02-16T03:03:11.064Z,972.3
2019-02-16T03:13:14.499Z,972.6
2019-02-16T03:23:17.991Z,972.6
2019-02-16T03:33:21.514Z,972.7
2019-02-16T03:43:25.013Z,972.5
2019-02-16T03:53:28.433Z,972.7
2019-02-16T04:03:31.818Z,972.9
2019-02-16T04:13:35.297Z,972.8
2019-02-16T04:23:38.735Z,973.2
2019-02-16T04:33:42.175Z,973.3
2019-02-16T04:43:45.605Z,973.2
2019-02-16T04:53:49.024Z,973.5
2019-02-16T05:03:52.428Z,973.4
2019-02-16T05:13:55.875Z,973.5
2019-02-16T05:23:59.311Z,973.7
2019-02-16T05:34:02.764Z,973.7
2019-02-16T05:44:06.173Z,973.6
2019-02-16T05:54:09.589Z,973.7
2019-02-16T06:04:12.980Z,973.8
2019-02-16T06:14:16.412Z,973.9
2019-02-16T06:24:19.865Z,974
2019-02-16T06:34:23.316Z,974.3
2019-02-16T06:44:26.809Z,974.5
2019-02-16T06:54:30.256Z,974.4
2019-02-16T07:04:33.716Z,974.6
2019-02-16T07:14:37.169Z,974.7
2019-02-16T07:24:40.729Z,980
2019-02-16T07:34:44.891Z,978.7
2019-02-16T07:44:48.363Z,977.8
2019-02-16T07:54:51.797Z,976.6
2019-02-16T08:04:55.275Z,975.6
2019-02-16T08:14:58.664Z,975.2
2019-02-16T08:25:02.118Z,973.5
2019-02-16T08:35:05.562Z,973
2019-02-16T08:45:09.012Z,979.8
2019-02-16T08:55:12.459Z,979.2
2019-02-16T09:05:16.918Z,978.6
2019-02-16T09:15:20.337Z,978.5
2019-02-16T09:25:23.816Z,978.2
2019-02-16T09:35:27.250Z,977.7
2019-02-16T09:45:30.686Z,977
2019-02-16T09:55:34.091Z,976.6
2019-02-16T10:05:37.508Z,976.5
2019-02-16T10:15:40.950Z,976.4
2019-02-16T10:25:44.398Z,976.7
2019-02-16T10:35:47.842Z,976.7
2019-02-16T10:45:51.341Z,977.1
2019-02-16T10:55:54.797Z,976.9
2019-02-16T11:05:58.244Z,977
2019-02-16T11:16:01.661Z,976.5
2019-02-16T11:26:05.131Z,976.5
2019-02-16T11:36:08.566Z,975.8
2019-02-16T11:46:12.013Z,975.6
2019-02-16T11:56:15.458Z,975.2
2019-02-16T12:06:18.884Z,974.9
2019-02-16T12:16:22.332Z,974.9
2019-02-16T12:26:25.721Z,974.2
2019-02-16T12:36:29.238Z,974.1
2019-02-16T12:46:32.639Z,973.6
2019-02-16T12:56:36.112Z,973.3
2019-02-16T13:06:39.570Z,973.1
2019-02-16T13:16:43.015Z,972.9
2019-02-16T13:26:46.448Z,972.4
2019-02-16T13:36:49.869Z,972.6
2019-02-16T13:46:53.290Z,972.1
2019-02-16T13:56:58.330Z,971.7
2019-02-16T14:07:01.823Z,971.8
2019-02-16T14:17:05.279Z,971.6
2019-02-16T14:27:08.724Z,971.7
2019-02-16T14:37:12.159Z,971.7
2019-02-16T14:47:15.590Z,971.8
2019-02-16T14:57:19.019Z,971.7
2019-02-16T15:07:22.447Z,971.6
2019-02-16T15:17:25.859Z,971.8
2019-02-16T15:27:29.281Z,971.7
2019-02-16T15:37:32.700Z,971.8
2019-02-16T15:47:36.139Z,971.7
2019-02-16T15:57:39.610Z,971.7
2019-02-16T16:07:43.078Z,971.8
2019-02-16T16:17:46.493Z,972
2019-02-16T16:27:49.921Z,972.2
2019-02-16T16:37:53.332Z,972.6
2019-02-16T16:47:56.779Z,972.9
2019-02-16T16:58:00.218Z,973.4
2019-02-16T17:08:03.679Z,973.8
2019-02-16T17:18:07.132Z,974.4
2019-02-16T17:28:10.587Z,975.1
2019-02-16T17:38:14.009Z,975.8
2019-02-16T17:48:17.490Z,976.1
2019-02-16T17:58:20.905Z,976.5
2019-02-16T18:08:24.325Z,977.1
2019-02-16T18:18:27.797Z,977.3
2019-02-16T18:28:31.243Z,969.9
2019-02-16T18:38:34.700Z,970.3
2019-02-16T18:48:38.162Z,970.4
2019-02-16T18:58:41.631Z,970.9
2019-02-16T19:08:45.106Z,971.1
2019-02-16T19:18:48.570Z,971.4
2019-02-16T19:28:52.014Z,971.7
2019-02-16T19:38:55.447Z,972
2019-02-16T19:48:58.851Z,972.2
2019-02-16T19:59:02.381Z,972.4
2019-02-16T20:09:05.832Z,972.5
2019-02-16T20:19:09.341Z,972.7
2019-02-16T20:29:12.799Z,973
2019-02-16T20:39:17.233Z,973
2019-02-16T20:49:20.663Z,973.2
2019-02-16T20:59:24.098Z,973.5
2019-02-16T21:09:27.601Z,973.4
2019-02-16T21:19:31.008Z,973.5
2019-02-16T21:29:34.392Z,973.9
2019-02-16T21:39:37.834Z,974.1
2019-02-16T21:49:41.249Z,974.3
2019-02-16T21:59:44.670Z,974.5
2019-02-16T22:09:48.117Z,974.5
2019-02-16T22:19:51.578Z,974.5
2019-02-16T22:29:55.005Z,974.7
2019-02-16T22:39:58.465Z,974.7
2019-02-16T22:50:01.914Z,974.9
2019-02-16T23:00:05.316Z,974.9
2019-02-16T23:10:08.740Z,975.4
2019-02-16T23:20:12.168Z,975.4
2019-02-16T23:30:15.604Z,975.4
2019-02-16T23:40:19.012Z,975.3
2019-02-16T23:50:22.438Z,975.7
